Time;durP1;ratioP1;P1;durP2;ratioP2;P2;SDS_P1;SDS_P2;PMS_P1;PMS_P2;Temp;Humidity;BMP_temperature;BMP_pressure;BME280_temperature;BME280_humidity;BME280_pressure;Samples;Min_cycle;Max_cycle;Signal;HPM_P1;HPM_P2
2022/12/12 00:00:13;;;;;;;41.53;25.93;;;;;;;-0.02;100.00;99511.13;5070259;28;20180;-66
2022/12/12 00:02:40;;;;;;;43.67;26.17;;;;;;;-0.06;100.00;99515.41;5054709;28;20172;-68
2022/12/12 00:05:07;;;;;;;42.23;25.87;;;;;;;-0.31;100.00;99517.59;5088786;28;20181;-67
2022/12/12 00:07:32;;;;;;;42.63;27.30;;;;;;;-0.21;100.00;99515.69;5092228;28;20528;-68
2022/12/12 00:09:58;;;;;;;41.93;27.63;;;;;;;-0.10;100.00;99506.22;5089763;28;20189;-67
2022/12/12 00:12:23;;;;;;;45.73;26.80;;;;;;;-0.42;100.00;99511.91;5062522;28;20244;-66
2022/12/12 00:14:49;;;;;;;41.77;26.07;;;;;;;-0.30;100.00;99514.19;5095042;28;20715;-67
2022/12/12 00:17:14;;;;;;;41.10;25.90;;;;;;;-0.27;100.00;99510.75;5081823;28;20267;-65
2022/12/12 00:19:42;;;;;;;40.57;26.67;;;;;;;-0.37;100.00;99517.72;5092597;28;20184;-65
2022/12/12 00:22:09;;;;;;;40.57;26.87;;;;;;;-0.35;100.00;99509.25;5067493;28;20216;-66
2022/12/12 00:24:35;;;;;;;43.13;26.73;;;;;;;-0.38;100.00;99508.47;5092738;28;20199;-65
2022/12/12 00:27:00;;;;;;;40.63;26.40;;;;;;;-0.29;100.00;99512.50;5090393;28;20184;-66
2022/12/12 00:29:25;;;;;;;47.60;26.60;;;;;;;-0.39;100.00;99507.63;5093270;28;20191;-66
2022/12/12 00:31:51;;;;;;;38.57;24.83;;;;;;;-0.50;100.00;99519.63;5035190;28;20652;-66
2022/12/12 00:34:16;;;;;;;39.73;24.83;;;;;;;-0.42;100.00;99519.47;5087657;28;20192;-65
2022/12/12 00:36:41;;;;;;;44.40;28.00;;;;;;;-0.38;100.00;99519.41;5089137;28;20705;-65
2022/12/12 00:39:07;;;;;;;38.57;25.67;;;;;;;-0.36;100.00;99522.72;5091458;28;20188;-66
2022/12/12 00:41:32;;;;;;;39.00;25.73;;;;;;;-0.46;100.00;99518.69;5081506;28;20216;-66
2022/12/12 00:43:58;;;;;;;43.97;26.50;;;;;;;-0.44;100.00;99513.63;5093838;28;20187;-67
2022/12/12 00:46:24;;;;;;;40.87;26.83;;;;;;;-0.21;100.00;99514.03;5090135;28;20241;-66
2022/12/12 00:48:53;;;;;;;42.67;27.10;;;;;;;-0.18;100.00;99515.66;5091426;28;20512;-66
2022/12/12 00:51:20;;;;;;;39.83;26.27;;;;;;;-0.11;100.00;99518.88;5081896;28;20216;-66
2022/12/12 00:53:47;;;;;;;41.13;27.37;;;;;;;-0.18;100.00;99520.72;5091761;28;20202;-65
2022/12/12 00:56:14;;;;;;;47.03;27.50;;;;;;;-0.26;100.00;99515.81;5092166;28;20279;-66
2022/12/12 00:58:40;;;;;;;42.30;27.07;;;;;;;-0.36;100.00;99514.31;5091590;28;20257;-66
2022/12/12 01:01:22;;;;;;;36.10;25.23;;;;;;;-0.40;100.00;99523.63;5086711;28;20681;-65
2022/12/12 01:03:47;;;;;;;40.57;26.33;;;;;;;-0.47;100.00;99522.09;5096421;28;20331;-66
2022/12/12 01:06:13;;;;;;;41.37;25.57;;;;;;;-0.54;100.00;99521.38;5090910;28;20180;-65
2022/12/12 01:08:39;;;;;;;39.33;26.20;;;;;;;-0.46;100.00;99510.28;5087565;28;20615;-66
2022/12/12 01:11:05;;;;;;;40.93;25.97;;;;;;;-0.35;100.00;99515.97;5093308;27;20219;-66
2022/12/12 01:13:31;;;;;;;40.83;26.80;;;;;;;-0.45;100.00;99522.06;5094949;28;20242;-66
2022/12/12 01:15:56;;;;;;;42.30;26.73;;;;;;;-0.47;100.00;99529.69;5081694;28;20184;-65
2022/12/12 01:18:21;;;;;;;39.63;27.93;;;;;;;-0.42;100.00;99527.06;5085375;28;20188;-66
2022/12/12 01:20:47;;;;;;;41.03;27.43;;;;;;;-0.39;100.00;99524.47;5082009;28;20215;-66
2022/12/12 01:23:12;;;;;;;43.60;26.83;;;;;;;-0.39;100.00;99532.88;5092479;28;20700;-66
2022/12/12 01:25:37;;;;;;;40.63;25.00;;;;;;;-0.49;100.00;99538.97;5075490;28;20168;-66
2022/12/12 01:28:03;;;;;;;41.97;26.47;;;;;;;-0.41;100.00;99526.19;5073758;28;20563;-66
2022/12/12 01:30:28;;;;;;;42.70;27.27;;;;;;;-0.36;100.00;99526.94;5082521;28;20220;-67
2022/12/12 01:32:54;;;;;;;42.37;26.03;;;;;;;-0.47;100.00;99541.47;5092151;28;20183;-66
2022/12/12 01:35:20;;;;;;;41.70;26.37;;;;;;;-0.29;100.00;99535.25;5075052;28;20279;-66
2022/12/12 01:37:48;;;;;;;43.23;27.47;;;;;;;-0.25;100.00;99536.84;5074571;28;20176;-66
2022/12/12 01:40:17;;;;;;;38.03;26.27;;;;;;;-0.42;100.00;99537.16;5072149;28;20231;-66
2022/12/12 01:42:43;;;;;;;38.90;25.10;;;;;;;-0.43;100.00;99543.94;5085368;28;20250;-66
2022/12/12 01:45:46;;;;;;;38.97;25.47;;;;;;;-0.47;100.00;99542.31;5073081;28;20970;-65
2022/12/12 01:48:12;;;;;;;45.07;27.37;;;;;;;-0.32;100.00;99536.16;5067640;28;20255;-65
2022/12/12 01:50:39;;;;;;;45.30;27.37;;;;;;;-0.36;100.00;99537.91;5070755;28;20230;-65
2022/12/12 01:53:04;;;;;;;39.43;25.53;;;;;;;-0.31;100.00;99544.56;5092244;28;20188;-66
2022/12/12 01:55:29;;;;;;;41.40;25.93;;;;;;;-0.22;100.00;99540.16;5092280;28;20196;-66
2022/12/12 01:57:54;;;;;;;42.23;26.87;;;;;;;-0.20;100.00;99540.97;5092369;28;20182;-66
2022/12/12 02:00:20;;;;;;;41.27;26.83;;;;;;;-0.11;100.00;99546.69;5084635;28;20180;-66
2022/12/12 02:02:46;;;;;;;42.87;26.37;;;;;;;-0.09;100.00;99547.50;5091475;28;20518;-65
2022/12/12 02:05:29;;;;;;;38.83;26.63;;;;;;;-0.13;100.00;99553.50;5092851;28;20176;-66
2022/12/12 02:07:58;;;;;;;39.97;25.90;;;;;;;-0.15;100.00;99538.34;5091661;28;20206;-66
2022/12/12 02:10:23;;;;;;;36.93;25.27;;;;;;;-0.15;100.00;99545.09;5082078;28;20410;-66
2022/12/12 02:12:49;;;;;;;42.90;25.83;;;;;;;-0.07;100.00;99550.84;5091380;28;20303;-66
2022/12/12 02:15:14;;;;;;;38.60;25.67;;;;;;;-0.07;100.00;99545.78;5091631;28;20207;-66
2022/12/12 02:17:46;;;;;;;37.23;24.83;;;;;;;-0.21;100.00;99548.56;5091864;28;20172;-64
2022/12/12 02:20:25;;;;;;;38.40;25.77;;;;;;;-0.22;100.00;99549.44;5084015;27;20677;-66
2022/12/12 02:23:24;;;;;;;40.27;25.67;;;;;;;-0.22;100.00;99552.78;5125746;27;20187;-66
2022/12/12 02:26:32;;;;;;;40.90;25.60;;;;;;;-0.30;100.00;99551.28;5093166;28;20180;-66
2022/12/12 02:29:19;;;;;;;40.63;25.80;;;;;;;-0.20;100.00;99546.03;5092657;28;20176;-66
2022/12/12 02:32:02;;;;;;;43.53;26.93;;;;;;;-0.09;100.00;99548.31;5091035;27;20282;-66
2022/12/12 02:34:54;;;;;;;42.53;27.20;;;;;;;-0.25;100.00;99549.50;5098960;27;20287;-66
2022/12/12 02:37:22;;;;;;;45.90;27.93;;;;;;;-0.50;100.00;99550.78;5092106;28;20172;-66
2022/12/12 02:40:02;;;;;;;38.87;26.50;;;;;;;-0.52;100.00;99549.97;5092842;28;20257;-66
2022/12/12 02:42:44;;;;;;;42.13;26.03;;;;;;;-0.45;100.00;99547.34;5064880;28;20655;-65
2022/12/12 02:45:19;;;;;;;43.40;26.33;;;;;;;-0.38;100.00;99539.63;5089238;28;20167;-67
2022/12/12 02:47:50;;;;;;;38.13;25.57;;;;;;;-0.38;100.00;99543.84;5094466;28;20210;-66
2022/12/12 02:50:28;;;;;;;40.43;25.47;;;;;;;-0.47;100.00;99544.00;5081367;28;20533;-67
2022/12/12 02:52:54;;;;;;;38.43;24.83;;;;;;;-0.40;100.00;99543.03;5092634;28;20228;-67
2022/12/12 02:55:19;;;;;;;44.40;26.40;;;;;;;-0.36;100.00;99544.63;5098701;28;20283;-66
2022/12/12 02:57:46;;;;;;;40.43;26.43;;;;;;;-0.26;100.00;99548.69;5105981;28;20172;-66
2022/12/12 03:00:16;;;;;;;41.00;25.17;;;;;;;-0.21;100.00;99549.41;5072684;28;20182;-66
2022/12/12 03:02:47;;;;;;;37.83;24.27;;;;;;;-0.17;100.00;99550.19;5096226;28;20185;-66
2022/12/12 03:08:18;;;;;;;39.90;25.67;;;;;;;-0.18;100.00;99540.94;5101867;28;20195;-66
2022/12/12 03:10:52;;;;;;;37.13;24.97;;;;;;;-0.39;100.00;99537.94;5085538;28;20696;-66
2022/12/12 03:13:39;;;;;;;39.13;24.37;;;;;;;-0.53;100.00;99534.84;5101389;28;20210;-66
2022/12/12 03:16:26;;;;;;;39.57;24.73;;;;;;;-0.48;100.00;99540.66;5091769;28;20256;-65
2022/12/12 03:18:57;;;;;;;35.43;24.23;;;;;;;-0.45;100.00;99544.81;5104856;28;20183;-65
2022/12/12 03:21:37;;;;;;;39.20;25.03;;;;;;;-0.51;100.00;99539.03;5082889;28;20257;-67
2022/12/12 03:24:09;;;;;;;39.10;24.90;;;;;;;-0.42;100.00;99534.63;5095931;28;20626;-65
2022/12/12 03:26:47;;;;;;;34.27;22.17;;;;;;;-0.52;100.00;99537.34;5109959;28;20184;-66
2022/12/12 03:29:18;;;;;;;35.57;23.07;;;;;;;-0.51;100.00;99541.53;5111157;28;20583;-66
2022/12/12 03:31:50;;;;;;;41.23;23.50;;;;;;;-0.35;100.00;99534.50;5085154;28;20212;-66
2022/12/12 03:34:19;;;;;;;36.13;23.33;;;;;;;-0.22;100.00;99536.81;5109887;28;20195;-66
2022/12/12 03:36:53;;;;;;;32.67;23.13;;;;;;;-0.34;100.00;99528.56;5110902;28;20176;-66
2022/12/12 03:39:32;;;;;;;38.43;23.10;;;;;;;-0.32;100.00;99531.09;5111101;28;20195;-66
2022/12/12 03:42:22;;;;;;;36.13;23.60;;;;;;;-0.25;100.00;99535.19;5055474;28;20692;-66
2022/12/12 03:44:54;;;;;;;37.33;24.07;;;;;;;-0.37;100.00;99540.47;5092875;28;20650;-66
2022/12/12 03:47:25;;;;;;;37.43;23.63;;;;;;;-0.49;100.00;99542.31;5110912;28;20764;-66
2022/12/12 03:50:18;;;;;;;33.67;23.30;;;;;;;-0.43;100.00;99538.06;5098420;28;20186;-66
2022/12/12 03:52:50;;;;;;;36.77;23.57;;;;;;;-0.33;100.00;99537.81;5071179;28;20678;-67
2022/12/12 03:55:23;;;;;;;40.30;24.40;;;;;;;-0.25;100.00;99540.22;5076778;28;20564;-67
2022/12/12 03:57:58;;;;;;;34.00;21.87;;;;;;;-0.30;100.00;99542.00;5057924;28;20519;-66
2022/12/12 04:00:23;;;;;;;34.27;22.47;;;;;;;-0.22;100.00;99550.28;5065318;28;20221;-66
2022/12/12 04:02:52;;;;;;;34.27;24.30;;;;;;;-0.15;100.00;99548.44;5090463;28;20187;-66
2022/12/12 04:05:24;;;;;;;34.97;23.33;;;;;;;-0.18;100.00;99551.88;5090996;28;20192;-66
2022/12/12 04:08:10;;;;;;;45.23;24.47;;;;;;;-0.24;100.00;99543.59;5090470;28;20176;-66
2022/12/12 04:13:48;;;;;;;38.47;24.23;;;;;;;-0.32;100.00;99556.38;5085438;28;20597;-67
2022/12/12 04:16:22;;;;;;;35.47;23.50;;;;;;;-0.22;100.00;99549.44;5089667;28;20218;-64
2022/12/12 04:25:04;;;;;;;38.30;24.13;;;;;;;-0.09;100.00;99555.91;5096260;28;20222;-67
2022/12/12 04:27:36;;;;;;;39.73;25.93;;;;;;;-0.15;100.00;99557.75;5091376;28;20196;-66
2022/12/12 04:30:07;;;;;;;40.10;22.40;;;;;;;-0.16;100.00;99556.91;5092115;28;20184;-65
2022/12/12 04:32:41;;;;;;;33.97;22.70;;;;;;;-0.26;100.00;99563.84;5059003;28;20235;-67
2022/12/12 04:35:12;;;;;;;33.93;23.60;;;;;;;-0.37;100.00;99564.03;5091445;28;20294;-66
2022/12/12 04:37:48;;;;;;;33.23;22.10;;;;;;;-0.41;100.00;99566.63;5093172;28;20695;-66
2022/12/12 04:40:20;;;;;;;37.73;23.43;;;;;;;-0.35;100.00;99569.91;5083273;28;20171;-67
2022/12/12 04:42:53;;;;;;;35.30;21.23;;;;;;;-0.26;100.00;99563.84;5111598;28;20180;-66
2022/12/12 04:45:22;;;;;;;37.93;24.27;;;;;;;-0.27;100.00;99573.97;5095322;28;20224;-66
2022/12/12 04:47:51;;;;;;;36.33;22.77;;;;;;;-0.21;100.00;99572.16;5095301;28;20527;-66
2022/12/12 04:50:20;;;;;;;35.30;23.30;;;;;;;-0.52;100.00;99577.78;5087514;28;20178;-67
2022/12/12 04:52:47;;;;;;;37.70;23.67;;;;;;;-0.40;100.00;99584.28;5109175;28;20223;-66
2022/12/12 04:55:19;;;;;;;36.03;23.43;;;;;;;-0.43;100.00;99581.81;5111811;28;20195;-66
2022/12/12 04:57:49;;;;;;;36.23;22.33;;;;;;;-0.32;100.00;99579.13;5100109;28;20231;-66
2022/12/12 05:00:15;;;;;;;33.67;22.63;;;;;;;-0.16;100.00;99574.63;5100179;27;20171;-67
2022/12/12 05:03:04;;;;;;;36.07;23.80;;;;;;;-0.21;100.00;99589.00;5120685;27;20248;-66
2022/12/12 05:05:41;;;;;;;37.80;23.50;;;;;;;-0.13;100.00;99588.88;5114326;28;20278;-67
2022/12/12 05:08:12;;;;;;;36.57;22.47;;;;;;;-0.21;100.00;99592.38;5103167;28;20611;-66
2022/12/12 05:10:43;;;;;;;39.17;24.33;;;;;;;-0.21;100.00;99597.44;5101782;27;20230;-67
2022/12/12 05:13:17;;;;;;;33.57;22.30;;;;;;;-0.26;100.00;99594.16;5113310;28;20745;-67
2022/12/12 05:15:44;;;;;;;36.67;23.57;;;;;;;-0.14;100.00;99594.81;5113064;28;20558;-66
2022/12/12 05:18:10;;;;;;;38.67;23.67;;;;;;;-0.26;100.00;99594.16;5112842;28;20187;-66
2022/12/12 05:20:36;;;;;;;35.33;23.07;;;;;;;-0.19;100.00;99598.25;5102678;28;20224;-66
2022/12/12 05:23:01;;;;;;;34.83;22.77;;;;;;;-0.11;100.00;99594.72;5112846;28;20190;-66
2022/12/12 05:25:27;;;;;;;40.07;25.93;;;;;;;-0.10;100.00;99597.25;5100296;28;20182;-65
2022/12/12 05:27:52;;;;;;;34.50;22.37;;;;;;;-0.15;100.00;99588.91;5111896;28;20184;-65
2022/12/12 05:30:17;;;;;;;37.70;23.77;;;;;;;-0.19;100.00;99595.72;5102422;28;20184;-66
2022/12/12 05:32:43;;;;;;;38.27;24.23;;;;;;;-0.18;100.00;99597.38;5112744;28;20191;-65
2022/12/12 05:35:09;;;;;;;38.07;23.97;;;;;;;-0.23;100.00;99599.16;5078132;28;20230;-66
2022/12/12 05:37:34;;;;;;;36.97;23.63;;;;;;;-0.45;100.00;99602.94;5093195;28;20175;-66
2022/12/12 05:40:00;;;;;;;38.03;23.73;;;;;;;-0.39;100.00;99603.66;5113374;28;20691;-67
2022/12/12 05:42:25;;;;;;;35.50;23.93;;;;;;;-0.56;100.00;99598.06;5099230;28;20223;-68
2022/12/12 05:44:50;;;;;;;36.20;22.40;;;;;;;-0.52;100.00;99609.75;5108037;28;20241;-66
2022/12/12 05:47:17;;;;;;;35.67;22.97;;;;;;;-0.43;100.00;99601.22;5112335;28;20189;-67
2022/12/12 05:49:43;;;;;;;34.77;24.03;;;;;;;-0.23;100.00;99600.88;5106665;28;20179;-66
2022/12/12 05:52:08;;;;;;;37.83;24.10;;;;;;;-0.38;100.00;99602.78;5086827;27;20214;-67
2022/12/12 05:54:33;;;;;;;33.87;22.33;;;;;;;-0.32;100.00;99604.38;5097557;28;20552;-68
2022/12/12 05:56:59;;;;;;;33.20;21.77;;;;;;;-0.23;100.00;99608.44;5102530;28;20180;-67
2022/12/12 05:59:24;;;;;;;35.90;23.10;;;;;;;-0.36;100.00;99606.13;5112550;28;20175;-66
2022/12/12 06:01:49;;;;;;;34.63;22.33;;;;;;;-0.42;100.00;99610.44;5068737;28;20306;-66
2022/12/12 06:04:14;;;;;;;32.30;21.63;;;;;;;-0.64;100.00;99615.88;5095448;28;20180;-67
2022/12/12 06:06:40;;;;;;;31.43;22.07;;;;;;;-0.72;100.00;99616.00;5106148;28;20631;-67
2022/12/12 06:09:05;;;;;;;38.57;23.60;;;;;;;-0.68;100.00;99615.09;5106026;28;20186;-67
2022/12/12 06:11:30;;;;;;;33.27;21.33;;;;;;;-0.52;100.00;99620.72;5101441;28;20629;-66
2022/12/12 06:13:55;;;;;;;42.77;23.97;;;;;;;-0.40;100.00;99621.38;5111841;28;20237;-67
2022/12/12 06:16:21;;;;;;;34.57;23.27;;;;;;;-0.52;100.00;99624.94;5112451;28;20191;-65
2022/12/12 06:18:54;;;;;;;33.73;23.23;;;;;;;-0.68;100.00;99614.28;5112552;28;20184;-66
2022/12/12 06:21:20;;;;;;;36.10;23.37;;;;;;;-0.59;100.00;99629.25;5102444;27;20226;-65
2022/12/12 06:23:47;;;;;;;35.63;22.17;;;;;;;-0.56;100.00;99628.38;5106801;28;20183;-65
2022/12/12 06:26:15;;;;;;;34.77;21.80;;;;;;;-0.54;100.00;99629.19;5092261;28;20512;-64
2022/12/12 06:28:41;;;;;;;33.50;22.17;;;;;;;-0.51;100.00;99626.59;5092673;28;20176;-66
2022/12/12 06:31:08;;;;;;;37.93;23.33;;;;;;;-0.43;100.00;99624.78;5083746;28;20232;-65
2022/12/12 06:33:34;;;;;;;37.97;24.40;;;;;;;-0.47;100.00;99623.19;5112659;27;20272;-66
2022/12/12 06:36:01;;;;;;;34.50;23.40;;;;;;;-0.55;100.00;99630.03;5108131;28;20631;-65
2022/12/12 06:38:27;;;;;;;36.57;22.97;;;;;;;-0.43;100.00;99629.03;5093413;28;20262;-66
2022/12/12 06:40:53;;;;;;;33.87;20.53;;;;;;;-0.46;100.00;99626.53;5073051;28;20243;-66
2022/12/12 06:43:18;;;;;;;37.77;21.47;;;;;;;-0.31;100.00;99622.91;5096529;28;20176;-65
2022/12/12 06:45:43;;;;;;;34.53;21.90;;;;;;;-0.25;100.00;99625.31;5092243;28;20206;-65
2022/12/12 06:48:08;;;;;;;39.57;23.50;;;;;;;-0.24;100.00;99627.81;5092311;28;20204;-65
2022/12/12 06:50:38;;;;;;;33.10;21.13;;;;;;;-0.25;100.00;99628.69;5081599;28;20246;-65
2022/12/12 06:53:03;;;;;;;33.80;20.00;;;;;;;-0.25;100.00;99635.44;5114324;27;20176;-65
2022/12/12 06:55:28;;;;;;;32.67;20.73;;;;;;;-0.36;100.00;99633.94;5093585;28;20206;-66
2022/12/12 06:57:54;;;;;;;33.27;21.80;;;;;;;-0.24;100.00;99634.56;5093144;28;20652;-64
2022/12/12 07:00:19;;;;;;;32.73;20.90;;;;;;;-0.47;100.00;99640.03;5072427;28;20183;-65
2022/12/12 07:02:44;;;;;;;33.17;20.63;;;;;;;-0.24;100.00;99649.75;5092382;28;20271;-65
2022/12/12 07:05:10;;;;;;;33.83;21.70;;;;;;;-0.25;100.00;99643.00;5092597;28;20545;-67
2022/12/12 07:07:35;;;;;;;29.60;20.37;;;;;;;-0.27;100.00;99644.72;5104632;28;20190;-66
2022/12/12 07:10:00;;;;;;;31.00;20.17;;;;;;;-0.18;100.00;99649.63;5108593;28;20182;-66
2022/12/12 07:12:26;;;;;;;30.03;19.57;;;;;;;-0.16;100.00;99650.47;5099632;28;20644;-66
2022/12/12 07:14:51;;;;;;;32.33;20.67;;;;;;;-0.26;100.00;99651.47;5092017;28;20219;-66
2022/12/12 07:17:16;;;;;;;34.30;22.67;;;;;;;-0.18;100.00;99652.16;5106899;28;20222;-66
2022/12/12 07:19:42;;;;;;;37.47;22.10;;;;;;;-0.37;100.00;99656.72;5108754;28;20179;-66
2022/12/12 07:22:07;;;;;;;31.87;21.10;;;;;;;-0.51;100.00;99659.44;5099416;28;20231;-65
2022/12/12 07:24:32;;;;;;;35.40;22.07;;;;;;;-0.33;100.00;99663.38;5110396;28;20187;-66
2022/12/12 07:26:57;;;;;;;33.10;22.10;;;;;;;-0.27;100.00;99663.28;5107332;28;20202;-66
2022/12/12 07:29:23;;;;;;;34.13;21.93;;;;;;;-0.28;100.00;99663.31;5109161;28;20185;-67
2022/12/12 07:31:48;;;;;;;33.03;21.47;;;;;;;-0.35;100.00;99658.34;5095719;28;20238;-66
2022/12/12 07:34:13;;;;;;;31.30;20.40;;;;;;;-0.43;100.00;99666.94;5090020;28;20210;-66
2022/12/12 07:36:39;;;;;;;32.40;20.43;;;;;;;-0.39;100.00;99666.81;5101674;28;20184;-66
2022/12/12 07:39:04;;;;;;;35.30;22.07;;;;;;;-0.37;100.00;99676.94;5107501;28;20273;-66
2022/12/12 07:41:29;;;;;;;30.17;20.47;;;;;;;-0.26;100.00;99664.09;5093954;28;20725;-66
2022/12/12 07:43:54;;;;;;;31.43;19.90;;;;;;;-0.28;100.00;99673.41;5107302;28;20191;-66
2022/12/12 07:46:23;;;;;;;34.33;21.43;;;;;;;-0.32;100.00;99677.69;5102431;28;20194;-66
2022/12/12 07:48:49;;;;;;;35.73;21.33;;;;;;;-0.39;100.00;99674.41;5107569;28;20179;-67
2022/12/12 07:51:15;;;;;;;36.23;20.47;;;;;;;-0.34;100.00;99672.63;5089566;28;20268;-66
2022/12/12 07:53:41;;;;;;;31.57;20.20;;;;;;;-0.33;100.00;99671.78;5099233;28;20183;-66
2022/12/12 07:56:08;;;;;;;31.13;19.90;;;;;;;-0.32;100.00;99667.56;5110187;28;20701;-67
2022/12/12 07:58:34;;;;;;;35.00;26.15;;;;;;;-0.10;100.00;99677.31;5084913;28;20419;-65
2022/12/12 08:00:59;;;;;;;32.20;21.43;;;;;;;-0.11;100.00;99686.59;5084691;28;20215;-67
2022/12/12 08:03:24;;;;;;;31.90;19.67;;;;;;;-0.23;100.00;99671.63;5110577;28;20179;-66
2022/12/12 08:05:50;;;;;;;31.70;19.73;;;;;;;-0.40;100.00;99676.97;5116705;28;20236;-66
2022/12/12 08:08:15;;;;;;;28.17;18.47;;;;;;;-0.41;100.00;99682.88;5102825;28;20175;-66
2022/12/12 08:10:40;;;;;;;32.57;20.63;;;;;;;-0.25;100.00;99684.31;5086319;28;20345;-67
2022/12/12 08:13:06;;;;;;;31.97;19.83;;;;;;;-0.15;100.00;99684.97;5093529;28;20219;-67
2022/12/12 08:15:31;;;;;;;29.37;18.70;;;;;;;-0.08;100.00;99688.25;5092011;28;20337;-67
2022/12/12 08:17:57;;;;;;;29.83;19.33;;;;;;;-0.08;100.00;99686.53;5105992;28;20221;-65
2022/12/12 08:20:22;;;;;;;29.87;18.90;;;;;;;0.08;100.00;99697.22;5087222;28;20289;-66
2022/12/12 08:22:48;;;;;;;27.07;18.90;;;;;;;0.14;100.00;99704.69;5111669;27;20252;-68
2022/12/12 08:25:13;;;;;;;29.50;19.20;;;;;;;0.31;100.00;99701.00;5101779;28;20183;-67
2022/12/12 08:27:38;;;;;;;29.13;19.87;;;;;;;0.39;100.00;99701.72;5112432;28;20704;-67
2022/12/12 08:30:04;;;;;;;30.73;19.47;;;;;;;0.49;100.00;99699.84;5097994;28;20194;-66
2022/12/12 08:32:30;;;;;;;26.97;18.40;;;;;;;0.49;100.00;99702.38;5095923;28;20254;-65
2022/12/12 08:34:58;;;;;;;28.30;18.50;;;;;;;0.34;100.00;99703.50;5110157;28;20223;-67
2022/12/12 08:37:24;;;;;;;25.03;17.37;;;;;;;0.41;100.00;99701.66;5103286;28;20281;-66
2022/12/12 08:39:50;;;;;;;29.43;18.43;;;;;;;0.45;100.00;99700.78;5110167;28;20296;-67
2022/12/12 08:42:15;;;;;;;26.80;18.07;;;;;;;0.50;100.00;99705.72;5102763;28;20564;-66
2022/12/12 08:44:41;;;;;;;28.67;18.80;;;;;;;0.50;100.00;99703.19;5111045;28;20188;-68
2022/12/12 08:47:06;;;;;;;28.27;18.07;;;;;;;0.59;100.00;99703.84;5112340;28;20204;-67
2022/12/12 08:49:31;;;;;;;28.93;20.10;;;;;;;0.60;100.00;99705.53;5111663;28;20195;-68
2022/12/12 08:51:57;;;;;;;26.97;22.57;;;;;;;1.17;100.00;99697.63;5101277;28;20439;-67
2022/12/12 08:54:23;;;;;;;27.37;19.30;;;;;;;1.07;100.00;99712.19;5109692;28;20208;-67
2022/12/12 08:56:48;;;;;;;29.33;19.70;;;;;;;0.97;100.00;99711.53;5095720;28;20252;-66
2022/12/12 08:59:13;;;;;;;24.00;18.27;;;;;;;0.74;100.00;99719.59;5109226;28;20176;-67
2022/12/12 09:01:39;;;;;;;26.27;16.47;;;;;;;0.90;100.00;99720.94;5088444;28;20328;-64
2022/12/12 09:04:04;;;;;;;25.37;17.07;;;;;;;1.10;100.00;99720.53;5107483;28;20181;-67
2022/12/12 09:06:30;;;;;;;26.73;17.03;;;;;;;0.66;100.00;99722.28;5110961;28;20232;-65
2022/12/12 09:08:56;;;;;;;24.03;16.37;;;;;;;0.73;100.00;99723.84;5107799;28;20203;-67
2022/12/12 09:11:22;;;;;;;23.53;16.07;;;;;;;0.88;100.00;99729.44;5099911;28;20227;-67
2022/12/12 09:13:47;;;;;;;23.37;16.07;;;;;;;1.13;100.00;99727.25;5090535;28;20227;-67
2022/12/12 09:16:13;;;;;;;22.30;15.13;;;;;;;1.25;100.00;99729.50;5093565;28;20183;-65
2022/12/12 09:18:39;;;;;;;24.43;16.23;;;;;;;1.41;100.00;99729.97;5095309;28;20189;-67
2022/12/12 09:21:04;;;;;;;22.37;16.07;;;;;;;1.00;100.00;99734.25;5099933;28;20208;-67
2022/12/12 09:23:30;;;;;;;23.47;15.53;;;;;;;1.00;100.00;99739.31;5111187;28;20553;-67
2022/12/12 09:25:56;;;;;;;23.17;15.70;;;;;;;1.09;100.00;99736.59;5111947;28;20550;-67
2022/12/12 09:28:23;;;;;;;21.73;16.20;;;;;;;0.93;100.00;99743.69;5109130;28;20234;-68
2022/12/12 09:30:49;;;;;;;24.63;15.43;;;;;;;0.98;100.00;99745.28;5099967;28;20216;-68
2022/12/12 09:33:16;;;;;;;23.17;16.03;;;;;;;1.20;100.00;99749.03;5112622;28;20190;-67
2022/12/12 09:35:41;;;;;;;22.07;14.57;;;;;;;1.49;100.00;99745.03;5111965;28;20288;-66
2022/12/12 09:38:07;;;;;;;22.20;16.10;;;;;;;1.81;100.00;99750.19;5109945;28;20273;-68
2022/12/12 09:40:50;;;;;;;19.77;14.27;;;;;;;1.80;100.00;99751.06;5092103;28;20270;-67
2022/12/12 09:43:21;;;;;;;23.47;14.90;;;;;;;1.89;100.00;99750.88;5105673;28;20676;-67
2022/12/12 09:45:46;;;;;;;24.75;19.38;;;;;;;2.02;100.00;99751.38;5109826;28;20422;-66
2022/12/12 09:48:24;;;;;;;22.80;15.80;;;;;;;1.72;100.00;99749.53;5091398;28;20205;-67
2022/12/12 09:50:50;;;;;;;21.37;14.63;;;;;;;1.60;100.00;99745.63;5099789;28;20233;-66
2022/12/12 09:53:18;;;;;;;19.50;14.20;;;;;;;1.67;100.00;99742.94;5110353;28;20525;-67
2022/12/12 09:56:02;;;;;;;21.40;14.60;;;;;;;1.55;100.00;99744.88;5110479;28;20203;-66
2022/12/12 09:58:44;;;;;;;18.40;13.07;;;;;;;1.44;100.00;99751.91;5109983;28;20632;-66
2022/12/12 10:01:30;;;;;;;20.93;14.13;;;;;;;1.52;100.00;99741.59;5100628;28;20633;-67
2022/12/12 10:04:33;;;;;;;19.40;14.13;;;;;;;1.61;100.00;99736.28;5108317;28;20591;-66
2022/12/12 10:07:08;;;;;;;20.50;14.63;;;;;;;1.66;100.00;99736.19;5104003;28;20187;-66
2022/12/12 10:09:43;;;;;;;20.70;14.07;;;;;;;1.88;100.00;99742.41;5087399;28;20187;-67
2022/12/12 10:12:12;;;;;;;22.17;14.73;;;;;;;1.93;100.00;99738.06;5095335;28;20246;-66
2022/12/12 10:14:47;;;;;;;20.57;13.87;;;;;;;1.90;100.00;99734.78;5101626;28;20269;-64
2022/12/12 10:17:24;;;;;;;20.03;14.50;;;;;;;1.74;100.00;99740.22;5091726;28;20227;-65
2022/12/12 10:19:58;;;;;;;22.27;14.93;;;;;;;1.96;100.00;99739.69;5087243;28;20540;-66
2022/12/12 10:22:54;;;;;;;21.13;14.33;;;;;;;1.67;100.00;99736.16;5097318;28;20232;-66
2022/12/12 10:25:24;;;;;;;18.90;13.60;;;;;;;1.68;100.00;99730.22;5100029;28;20198;-66
2022/12/12 10:27:54;;;;;;;19.90;14.63;;;;;;;2.04;100.00;99734.44;5098135;28;20256;-66
2022/12/12 10:30:20;;;;;;;19.50;13.90;;;;;;;1.92;100.00;99738.94;5082962;27;20244;-66
2022/12/12 10:33:14;;;;;;;19.43;14.30;;;;;;;1.85;100.00;99737.41;5125045;27;20656;-67
2022/12/12 10:36:04;;;;;;;20.37;14.93;;;;;;;1.91;100.00;99742.34;5081125;28;20239;-67
2022/12/12 10:38:49;;;;;;;19.17;13.23;;;;;;;1.98;100.00;99744.72;5102435;28;20269;-67
2022/12/12 10:41:32;;;;;;;19.17;13.13;;;;;;;1.82;100.00;99744.25;5078672;28;20226;-67
2022/12/12 10:44:10;;;;;;;19.90;13.10;;;;;;;2.01;100.00;99748.03;5093352;28;20678;-68
2022/12/12 10:46:46;;;;;;;18.90;13.63;;;;;;;2.16;100.00;99740.88;5099854;28;20511;-66
2022/12/12 10:49:17;;;;;;;20.43;13.97;;;;;;;2.11;100.00;99735.94;5104424;28;20272;-68
2022/12/12 10:51:45;;;;;;;20.60;13.37;;;;;;;1.93;100.00;99735.53;5087707;27;20229;-67
2022/12/12 10:54:17;;;;;;;22.33;14.87;;;;;;;2.00;100.00;99738.75;5104830;27;20203;-68
2022/12/12 10:57:07;;;;;;;20.03;13.40;;;;;;;1.82;100.00;99734.13;5101588;28;20553;-66
2022/12/12 10:59:41;;;;;;;20.43;13.73;;;;;;;1.67;100.00;99735.31;5111150;28;20591;-67
2022/12/12 11:02:24;;;;;;;19.57;13.70;;;;;;;1.42;100.00;99736.72;5099573;28;20218;-67
2022/12/12 11:05:05;;;;;;;18.43;12.77;;;;;;;1.74;100.00;99731.78;5108193;28;20479;-67
2022/12/12 11:07:36;;;;;;;23.03;14.50;;;;;;;1.33;100.00;99733.56;5108137;28;20177;-68
2022/12/12 11:10:12;;;;;;;21.13;16.77;;;;;;;1.79;100.00;99735.03;5094178;28;20457;-66
2022/12/12 11:12:37;;;;;;;18.93;14.03;;;;;;;1.74;100.00;99740.22;5073628;28;20229;-65
2022/12/12 11:15:16;;;;;;;17.87;12.97;;;;;;;1.38;100.00;99740.19;5107051;28;20244;-66
2022/12/12 11:17:41;;;;;;;20.33;13.80;;;;;;;1.32;100.00;99742.03;5105886;28;20280;-65
2022/12/12 11:20:13;;;;;;;21.60;13.83;;;;;;;1.06;100.00;99738.38;5097338;28;20181;-67
2022/12/12 11:22:38;;;;;;;18.40;13.47;;;;;;;0.80;100.00;99739.72;5105659;28;20672;-68
2022/12/12 11:25:04;;;;;;;20.70;13.30;;;;;;;0.96;100.00;99737.72;5108676;28;20261;-67
2022/12/12 11:27:33;;;;;;;19.57;14.10;;;;;;;0.98;100.00;99745.28;5092554;28;20207;-69
2022/12/12 11:30:03;;;;;;;20.37;13.87;;;;;;;0.89;100.00;99742.06;5110139;28;20209;-68
2022/12/12 11:32:38;;;;;;;24.27;18.92;;;;;;;1.33;100.00;99743.69;5080502;28;20511;-67
2022/12/12 11:35:19;;;;;;;21.87;15.60;;;;;;;1.03;100.00;99743.47;5107352;28;20200;-68